sensor_id;sensor_type;location;lat;lon;timestamp;temperature;humidity
50576;DHT22;76633;45.642;12.198;2024-03-25T00:00:15;9.10;69.10
50576;DHT22;76633;45.642;12.198;2024-03-25T00:02:41;9.30;68.20
50576;DHT22;76633;45.642;12.198;2024-03-25T00:05:08;9.60;66.60
50576;DHT22;76633;45.642;12.198;2024-03-25T00:07:39;9.70;66.20
50576;DHT22;76633;45.642;12.198;2024-03-25T00:10:06;9.40;67.00
50576;DHT22;76633;45.642;12.198;2024-03-25T00:12:36;9.10;68.20
50576;DHT22;76633;45.642;12.198;2024-03-25T00:15:02;8.90;68.80
50576;DHT22;76633;45.642;12.198;2024-03-25T00:17:28;9.10;68.60
50576;DHT22;76633;45.642;12.198;2024-03-25T00:19:53;9.00;68.50
50576;DHT22;76633;45.642;12.198;2024-03-25T00:22:20;8.80;68.50
50576;DHT22;76633;45.642;12.198;2024-03-25T00:24:46;8.70;69.10
50576;DHT22;76633;45.642;12.198;2024-03-25T00:27:13;8.60;69.20
50576;DHT22;76633;45.642;12.198;2024-03-25T00:29:39;8.50;69.50
50576;DHT22;76633;45.642;12.198;2024-03-25T00:32:05;7.90;72.10
50576;DHT22;76633;45.642;12.198;2024-03-25T00:34:31;8.00;71.90
50576;DHT22;76633;45.642;12.198;2024-03-25T00:36:58;8.20;71.50
50576;DHT22;76633;45.642;12.198;2024-03-25T00:39:24;8.10;71.80
50576;DHT22;76633;45.642;12.198;2024-03-25T00:41:51;8.00;71.70
50576;DHT22;76633;45.642;12.198;2024-03-25T00:44:17;8.30;71.20
50576;DHT22;76633;45.642;12.198;2024-03-25T00:46:43;8.40;70.40
50576;DHT22;76633;45.642;12.198;2024-03-25T00:49:09;8.70;69.30
50576;DHT22;76633;45.642;12.198;2024-03-25T00:51:35;8.90;68.30
50576;DHT22;76633;45.642;12.198;2024-03-25T00:54:01;8.90;67.90
50576;DHT22;76633;45.642;12.198;2024-03-25T00:56:27;8.90;67.80
50576;DHT22;76633;45.642;12.198;2024-03-25T00:58:53;8.90;68.20
50576;DHT22;76633;45.642;12.198;2024-03-25T01:01:18;8.70;69.00
50576;DHT22;76633;45.642;12.198;2024-03-25T01:03:44;8.60;68.90
50576;DHT22;76633;45.642;12.198;2024-03-25T01:06:10;8.60;68.70
50576;DHT22;76633;45.642;12.198;2024-03-25T01:08:35;8.40;68.90
50576;DHT22;76633;45.642;12.198;2024-03-25T01:11:01;8.30;69.60
50576;DHT22;76633;45.642;12.198;2024-03-25T01:13:27;8.30;69.60
50576;DHT22;76633;45.642;12.198;2024-03-25T01:15:52;8.30;69.90
50576;DHT22;76633;45.642;12.198;2024-03-25T01:18:18;8.30;70.00
50576;DHT22;76633;45.642;12.198;2024-03-25T01:20:43;8.20;70.00
50576;DHT22;76633;45.642;12.198;2024-03-25T01:23:10;8.20;70.00
50576;DHT22;76633;45.642;12.198;2024-03-25T01:25:36;8.30;69.70
50576;DHT22;76633;45.642;12.198;2024-03-25T01:28:01;8.20;69.90
50576;DHT22;76633;45.642;12.198;2024-03-25T01:30:27;8.10;70.20
50576;DHT22;76633;45.642;12.198;2024-03-25T01:32:54;7.90;70.60
50576;DHT22;76633;45.642;12.198;2024-03-25T01:35:20;7.70;71.30
50576;DHT22;76633;45.642;12.198;2024-03-25T01:37:46;7.50;71.80
50576;DHT22;76633;45.642;12.198;2024-03-25T01:40:11;7.60;72.20
50576;DHT22;76633;45.642;12.198;2024-03-25T01:42:37;7.50;72.30
50576;DHT22;76633;45.642;12.198;2024-03-25T01:45:04;7.60;72.00
50576;DHT22;76633;45.642;12.198;2024-03-25T01:47:31;7.60;72.10
50576;DHT22;76633;45.642;12.198;2024-03-25T01:49:59;7.50;72.10
50576;DHT22;76633;45.642;12.198;2024-03-25T01:52:26;7.50;72.40
50576;DHT22;76633;45.642;12.198;2024-03-25T01:54:53;7.50;72.00
50576;DHT22;76633;45.642;12.198;2024-03-25T01:57:18;7.40;72.40
50576;DHT22;76633;45.642;12.198;2024-03-25T01:59:45;7.60;72.30
50576;DHT22;76633;45.642;12.198;2024-03-25T02:02:12;7.50;71.90
50576;DHT22;76633;45.642;12.198;2024-03-25T02:04:39;7.60;71.40
50576;DHT22;76633;45.642;12.198;2024-03-25T02:07:07;7.60;71.70
50576;DHT22;76633;45.642;12.198;2024-03-25T02:09:35;7.80;71.40
50576;DHT22;76633;45.642;12.198;2024-03-25T02:12:02;7.90;70.50
50576;DHT22;76633;45.642;12.198;2024-03-25T02:14:27;7.60;71.10
50576;DHT22;76633;45.642;12.198;2024-03-25T02:16:53;7.50;71.60
50576;DHT22;76633;45.642;12.198;2024-03-25T02:19:21;7.40;71.40
50576;DHT22;76633;45.642;12.198;2024-03-25T02:21:49;7.70;71.10
50576;DHT22;76633;45.642;12.198;2024-03-25T02:24:15;7.70;71.00
50576;DHT22;76633;45.642;12.198;2024-03-25T02:26:43;7.70;70.80
50576;DHT22;76633;45.642;12.198;2024-03-25T02:29:11;7.80;70.70
50576;DHT22;76633;45.642;12.198;2024-03-25T02:31:37;7.80;70.80
50576;DHT22;76633;45.642;12.198;2024-03-25T02:34:03;7.70;70.90
50576;DHT22;76633;45.642;12.198;2024-03-25T02:36:28;7.70;71.40
50576;DHT22;76633;45.642;12.198;2024-03-25T02:38:54;7.70;71.80
50576;DHT22;76633;45.642;12.198;2024-03-25T02:41:20;7.80;71.50
50576;DHT22;76633;45.642;12.198;2024-03-25T02:43:48;7.80;71.40
50576;DHT22;76633;45.642;12.198;2024-03-25T02:46:14;7.50;71.80
50576;DHT22;76633;45.642;12.198;2024-03-25T02:48:39;7.40;71.60
50576;DHT22;76633;45.642;12.198;2024-03-25T02:51:05;7.20;72.40
50576;DHT22;76633;45.642;12.198;2024-03-25T02:53:31;7.00;72.30
50576;DHT22;76633;45.642;12.198;2024-03-25T02:55:56;7.00;73.10
50576;DHT22;76633;45.642;12.198;2024-03-25T02:58:22;7.10;72.50
50576;DHT22;76633;45.642;12.198;2024-03-25T03:00:48;7.10;71.50
50576;DHT22;76633;45.642;12.198;2024-03-25T03:03:13;7.10;71.90
50576;DHT22;76633;45.642;12.198;2024-03-25T03:05:39;7.10;71.60
50576;DHT22;76633;45.642;12.198;2024-03-25T03:08:05;7.10;72.10
50576;DHT22;76633;45.642;12.198;2024-03-25T03:10:30;7.10;71.90
50576;DHT22;76633;45.642;12.198;2024-03-25T03:12:56;6.90;71.90
50576;DHT22;76633;45.642;12.198;2024-03-25T03:15:22;6.80;72.90
50576;DHT22;76633;45.642;12.198;2024-03-25T03:17:47;6.80;72.70
50576;DHT22;76633;45.642;12.198;2024-03-25T03:20:13;6.80;73.40
50576;DHT22;76633;45.642;12.198;2024-03-25T03:22:39;6.90;73.60
50576;DHT22;76633;45.642;12.198;2024-03-25T03:25:05;7.00;72.90
50576;DHT22;76633;45.642;12.198;2024-03-25T03:27:30;7.00;72.90
50576;DHT22;76633;45.642;12.198;2024-03-25T03:29:56;7.10;72.30
50576;DHT22;76633;45.642;12.198;2024-03-25T03:32:22;7.10;72.50
50576;DHT22;76633;45.642;12.198;2024-03-25T03:34:48;7.20;72.30
50576;DHT22;76633;45.642;12.198;2024-03-25T03:37:13;7.20;72.00
50576;DHT22;76633;45.642;12.198;2024-03-25T03:39:39;7.30;71.90
50576;DHT22;76633;45.642;12.198;2024-03-25T03:42:04;7.30;71.60
50576;DHT22;76633;45.642;12.198;2024-03-25T03:44:30;7.10;72.10
50576;DHT22;76633;45.642;12.198;2024-03-25T03:46:56;7.00;72.50
50576;DHT22;76633;45.642;12.198;2024-03-25T03:49:22;7.00;72.70
50576;DHT22;76633;45.642;12.198;2024-03-25T03:51:47;6.90;72.70
50576;DHT22;76633;45.642;12.198;2024-03-25T03:54:13;6.90;73.10
50576;DHT22;76633;45.642;12.198;2024-03-25T03:56:39;6.90;73.60
50576;DHT22;76633;45.642;12.198;2024-03-25T03:59:04;6.90;74.00
50576;DHT22;76633;45.642;12.198;2024-03-25T04:01:30;7.00;73.80
50576;DHT22;76633;45.642;12.198;2024-03-25T04:03:56;7.10;73.80
50576;DHT22;76633;45.642;12.198;2024-03-25T04:06:21;7.00;73.90
50576;DHT22;76633;45.642;12.198;2024-03-25T04:08:47;6.90;74.00
50576;DHT22;76633;45.642;12.198;2024-03-25T04:11:13;6.90;74.40
50576;DHT22;76633;45.642;12.198;2024-03-25T04:13:38;6.90;74.20
50576;DHT22;76633;45.642;12.198;2024-03-25T04:16:05;6.90;73.90
50576;DHT22;76633;45.642;12.198;2024-03-25T04:18:32;6.70;74.40
50576;DHT22;76633;45.642;12.198;2024-03-25T04:20:58;6.80;74.10
50576;DHT22;76633;45.642;12.198;2024-03-25T04:23:24;6.50;74.10
50576;DHT22;76633;45.642;12.198;2024-03-25T04:25:50;6.60;74.60
50576;DHT22;76633;45.642;12.198;2024-03-25T04:28:16;6.40;74.20
50576;DHT22;76633;45.642;12.198;2024-03-25T04:30:42;6.20;74.40
50576;DHT22;76633;45.642;12.198;2024-03-25T04:33:08;6.00;74.90
50576;DHT22;76633;45.642;12.198;2024-03-25T04:35:34;6.10;74.70
50576;DHT22;76633;45.642;12.198;2024-03-25T04:37:59;6.10;74.50
50576;DHT22;76633;45.642;12.198;2024-03-25T04:40:25;6.10;74.60
50576;DHT22;76633;45.642;12.198;2024-03-25T04:42:51;6.10;75.00
50576;DHT22;76633;45.642;12.198;2024-03-25T04:45:16;6.00;75.30
50576;DHT22;76633;45.642;12.198;2024-03-25T04:47:42;6.20;74.40
50576;DHT22;76633;45.642;12.198;2024-03-25T04:50:09;6.10;74.70
50576;DHT22;76633;45.642;12.198;2024-03-25T04:52:34;5.90;75.00
50576;DHT22;76633;45.642;12.198;2024-03-25T04:55:00;5.90;75.40
50576;DHT22;76633;45.642;12.198;2024-03-25T04:57:26;6.10;75.30
50576;DHT22;76633;45.642;12.198;2024-03-25T04:59:51;6.10;74.90
50576;DHT22;76633;45.642;12.198;2024-03-25T05:02:17;6.00;75.70
50576;DHT22;76633;45.642;12.198;2024-03-25T05:04:43;6.20;75.30
50576;DHT22;76633;45.642;12.198;2024-03-25T05:07:08;6.30;74.90
50576;DHT22;76633;45.642;12.198;2024-03-25T05:09:36;6.20;75.60
50576;DHT22;76633;45.642;12.198;2024-03-25T05:12:01;6.20;75.70
50576;DHT22;76633;45.642;12.198;2024-03-25T05:14:27;6.30;75.60
50576;DHT22;76633;45.642;12.198;2024-03-25T05:16:52;6.10;76.10
50576;DHT22;76633;45.642;12.198;2024-03-25T05:19:19;6.00;76.70
50576;DHT22;76633;45.642;12.198;2024-03-25T05:21:45;6.10;76.20
50576;DHT22;76633;45.642;12.198;2024-03-25T05:24:11;6.20;75.90
50576;DHT22;76633;45.642;12.198;2024-03-25T05:26:36;6.30;75.60
50576;DHT22;76633;45.642;12.198;2024-03-25T05:29:02;6.40;74.80
50576;DHT22;76633;45.642;12.198;2024-03-25T05:31:28;6.40;74.40
50576;DHT22;76633;45.642;12.198;2024-03-25T05:33:53;6.30;74.70
50576;DHT22;76633;45.642;12.198;2024-03-25T05:36:19;6.30;74.70
50576;DHT22;76633;45.642;12.198;2024-03-25T05:38:45;6.40;74.40
50576;DHT22;76633;45.642;12.198;2024-03-25T05:41:11;6.40;74.40
50576;DHT22;76633;45.642;12.198;2024-03-25T05:43:37;6.50;74.20
50576;DHT22;76633;45.642;12.198;2024-03-25T05:46:03;6.50;73.80
50576;DHT22;76633;45.642;12.198;2024-03-25T05:48:29;6.80;73.10
50576;DHT22;76633;45.642;12.198;2024-03-25T05:51:04;6.80;72.00
50576;DHT22;76633;45.642;12.198;2024-03-25T05:53:35;6.80;71.70
50576;DHT22;76633;45.642;12.198;2024-03-25T05:56:03;6.90;71.60
50576;DHT22;76633;45.642;12.198;2024-03-25T05:58:29;6.90;71.20
50576;DHT22;76633;45.642;12.198;2024-03-25T06:00:55;7.10;70.70
50576;DHT22;76633;45.642;12.198;2024-03-25T06:03:21;7.20;70.40
50576;DHT22;76633;45.642;12.198;2024-03-25T06:05:47;7.20;71.00
50576;DHT22;76633;45.642;12.198;2024-03-25T06:08:13;7.30;70.50
50576;DHT22;76633;45.642;12.198;2024-03-25T06:10:46;7.40;69.80
50576;DHT22;76633;45.642;12.198;2024-03-25T06:13:12;7.50;69.00
50576;DHT22;76633;45.642;12.198;2024-03-25T06:15:37;7.60;68.50
50576;DHT22;76633;45.642;12.198;2024-03-25T06:18:03;7.80;68.40
50576;DHT22;76633;45.642;12.198;2024-03-25T06:20:29;7.80;68.60
50576;DHT22;76633;45.642;12.198;2024-03-25T06:28:49;8.40;68.60
50576;DHT22;76633;45.642;12.198;2024-03-25T06:31:14;8.60;68.00
50576;DHT22;76633;45.642;12.198;2024-03-25T06:33:59;8.80;67.70
50576;DHT22;76633;45.642;12.198;2024-03-25T06:36:40;8.80;67.50
50576;DHT22;76633;45.642;12.198;2024-03-25T06:39:06;8.90;66.60
50576;DHT22;76633;45.642;12.198;2024-03-25T06:41:31;9.00;66.70
50576;DHT22;76633;45.642;12.198;2024-03-25T06:43:57;9.20;65.90
50576;DHT22;76633;45.642;12.198;2024-03-25T06:46:23;9.30;65.20
50576;DHT22;76633;45.642;12.198;2024-03-25T06:48:48;9.40;64.40
50576;DHT22;76633;45.642;12.198;2024-03-25T06:51:14;9.40;65.00
50576;DHT22;76633;45.642;12.198;2024-03-25T06:53:40;9.50;65.40
50576;DHT22;76633;45.642;12.198;2024-03-25T06:56:05;9.60;64.90
50576;DHT22;76633;45.642;12.198;2024-03-25T06:58:31;9.80;64.30
50576;DHT22;76633;45.642;12.198;2024-03-25T07:01:07;9.80;63.50
50576;DHT22;76633;45.642;12.198;2024-03-25T07:03:33;10.00;62.40
50576;DHT22;76633;45.642;12.198;2024-03-25T07:05:59;10.10;62.50
50576;DHT22;76633;45.642;12.198;2024-03-25T07:08:26;10.30;62.80
50576;DHT22;76633;45.642;12.198;2024-03-25T07:10:52;10.40;62.60
50576;DHT22;76633;45.642;12.198;2024-03-25T07:13:18;10.60;61.60
50576;DHT22;76633;45.642;12.198;2024-03-25T07:15:44;10.70;61.20
50576;DHT22;76633;45.642;12.198;2024-03-25T07:18:10;10.90;61.10
50576;DHT22;76633;45.642;12.198;2024-03-25T07:20:42;11.00;60.70
50576;DHT22;76633;45.642;12.198;2024-03-25T07:23:08;11.00;60.10
50576;DHT22;76633;45.642;12.198;2024-03-25T07:25:34;10.90;61.90
50576;DHT22;76633;45.642;12.198;2024-03-25T07:28:00;10.70;61.50
50576;DHT22;76633;45.642;12.198;2024-03-25T07:30:26;10.30;62.30
50576;DHT22;76633;45.642;12.198;2024-03-25T07:32:55;10.40;62.80
50576;DHT22;76633;45.642;12.198;2024-03-25T07:35:20;10.60;62.90
50576;DHT22;76633;45.642;12.198;2024-03-25T07:37:46;10.80;61.50
50576;DHT22;76633;45.642;12.198;2024-03-25T07:40:12;10.80;62.30
50576;DHT22;76633;45.642;12.198;2024-03-25T07:42:39;10.80;62.30
50576;DHT22;76633;45.642;12.198;2024-03-25T07:45:05;10.90;62.70
50576;DHT22;76633;45.642;12.198;2024-03-25T07:47:32;11.10;61.20
50576;DHT22;76633;45.642;12.198;2024-03-25T07:49:58;11.30;61.10
50576;DHT22;76633;45.642;12.198;2024-03-25T07:52:27;11.60;60.20
50576;DHT22;76633;45.642;12.198;2024-03-25T07:54:56;11.90;58.30
50576;DHT22;76633;45.642;12.198;2024-03-25T07:57:22;11.90;58.30
50576;DHT22;76633;45.642;12.198;2024-03-25T07:59:47;12.10;58.10
50576;DHT22;76633;45.642;12.198;2024-03-25T08:02:13;12.10;56.80
50576;DHT22;76633;45.642;12.198;2024-03-25T08:04:39;12.00;56.90
50576;DHT22;76633;45.642;12.198;2024-03-25T08:07:05;11.90;57.40
50576;DHT22;76633;45.642;12.198;2024-03-25T08:09:31;12.10;56.70
50576;DHT22;76633;45.642;12.198;2024-03-25T08:11:56;12.40;56.30
50576;DHT22;76633;45.642;12.198;2024-03-25T08:14:22;12.50;55.20
50576;DHT22;76633;45.642;12.198;2024-03-25T08:16:48;12.30;56.20
50576;DHT22;76633;45.642;12.198;2024-03-25T08:19:14;12.40;55.80
50576;DHT22;76633;45.642;12.198;2024-03-25T08:21:40;12.40;56.30
50576;DHT22;76633;45.642;12.198;2024-03-25T08:24:06;12.60;56.40
50576;DHT22;76633;45.642;12.198;2024-03-25T08:26:31;12.70;54.70
50576;DHT22;76633;45.642;12.198;2024-03-25T08:28:57;12.90;54.60
50576;DHT22;76633;45.642;12.198;2024-03-25T08:31:23;13.10;54.00
50576;DHT22;76633;45.642;12.198;2024-03-25T08:33:48;13.10;54.00
50576;DHT22;76633;45.642;12.198;2024-03-25T08:36:14;13.40;54.00
50576;DHT22;76633;45.642;12.198;2024-03-25T08:38:40;13.30;53.50
50576;DHT22;76633;45.642;12.198;2024-03-25T08:41:05;13.30;53.90
50576;DHT22;76633;45.642;12.198;2024-03-25T08:43:31;13.50;53.00
50576;DHT22;76633;45.642;12.198;2024-03-25T08:45:57;13.80;53.10
50576;DHT22;76633;45.642;12.198;2024-03-25T08:48:23;13.90;52.40
50576;DHT22;76633;45.642;12.198;2024-03-25T08:50:49;14.20;51.30
50576;DHT22;76633;45.642;12.198;2024-03-25T08:53:15;14.40;51.20
50576;DHT22;76633;45.642;12.198;2024-03-25T08:55:47;14.50;50.10
50576;DHT22;76633;45.642;12.198;2024-03-25T08:58:16;14.80;50.00
50576;DHT22;76633;45.642;12.198;2024-03-25T09:00:42;15.20;48.70
50576;DHT22;76633;45.642;12.198;2024-03-25T09:03:08;15.20;46.90
50576;DHT22;76633;45.642;12.198;2024-03-25T09:05:36;15.40;47.10
50576;DHT22;76633;45.642;12.198;2024-03-25T09:08:07;15.80;46.70
50576;DHT22;76633;45.642;12.198;2024-03-25T09:10:32;15.70;45.60
50576;DHT22;76633;45.642;12.198;2024-03-25T09:13:17;15.60;48.00
50576;DHT22;76633;45.642;12.198;2024-03-25T09:15:42;15.80;46.50
50576;DHT22;76633;45.642;12.198;2024-03-25T09:18:08;15.90;46.60
50576;DHT22;76633;45.642;12.198;2024-03-25T09:20:34;15.90;46.10
50576;DHT22;76633;45.642;12.198;2024-03-25T09:23:00;16.10;46.60
50576;DHT22;76633;45.642;12.198;2024-03-25T09:25:25;16.20;43.70
50576;DHT22;76633;45.642;12.198;2024-03-25T09:27:51;16.40;43.60
50576;DHT22;76633;45.642;12.198;2024-03-25T09:30:17;16.70;43.30
50576;DHT22;76633;45.642;12.198;2024-03-25T09:32:45;16.80;43.90
50576;DHT22;76633;45.642;12.198;2024-03-25T09:35:12;17.00;44.30
50576;DHT22;76633;45.642;12.198;2024-03-25T09:37:38;17.10;43.40
50576;DHT22;76633;45.642;12.198;2024-03-25T09:40:04;16.90;43.20
50576;DHT22;76633;45.642;12.198;2024-03-25T09:42:48;17.10;41.60
50576;DHT22;76633;45.642;12.198;2024-03-25T09:45:16;16.60;40.20
50576;DHT22;76633;45.642;12.198;2024-03-25T09:47:46;16.90;39.30
50576;DHT22;76633;45.642;12.198;2024-03-25T09:50:15;17.10;40.70
50576;DHT22;76633;45.642;12.198;2024-03-25T09:52:48;17.30;40.70
50576;DHT22;76633;45.642;12.198;2024-03-25T09:55:14;17.40;40.90
50576;DHT22;76633;45.642;12.198;2024-03-25T09:57:42;17.30;41.40
50576;DHT22;76633;45.642;12.198;2024-03-25T10:00:08;17.20;42.20
50576;DHT22;76633;45.642;12.198;2024-03-25T10:02:40;17.50;40.30
50576;DHT22;76633;45.642;12.198;2024-03-25T10:05:07;17.80;38.80
50576;DHT22;76633;45.642;12.198;2024-03-25T10:07:33;18.00;37.40
50576;DHT22;76633;45.642;12.198;2024-03-25T10:09:59;18.40;39.00
50576;DHT22;76633;45.642;12.198;2024-03-25T10:12:25;18.60;39.80
50576;DHT22;76633;45.642;12.198;2024-03-25T10:14:51;18.30;39.90
50576;DHT22;76633;45.642;12.198;2024-03-25T10:17:16;18.50;40.10
50576;DHT22;76633;45.642;12.198;2024-03-25T10:19:42;19.10;39.00
50576;DHT22;76633;45.642;12.198;2024-03-25T10:22:08;19.10;35.60
50576;DHT22;76633;45.642;12.198;2024-03-25T10:24:42;19.00;35.40
50576;DHT22;76633;45.642;12.198;2024-03-25T10:27:22;18.90;36.70
50576;DHT22;76633;45.642;12.198;2024-03-25T10:29:51;20.50;34.40
50576;DHT22;76633;45.642;12.198;2024-03-25T10:32:17;25.50;29.00
50576;DHT22;76633;45.642;12.198;2024-03-25T10:34:43;26.90;27.70
50576;DHT22;76633;45.642;12.198;2024-03-25T10:37:10;25.60;29.00
50576;DHT22;76633;45.642;12.198;2024-03-25T10:40:02;29.30;25.50
50576;DHT22;76633;45.642;12.198;2024-03-25T10:42:31;32.00;22.60
50576;DHT22;76633;45.642;12.198;2024-03-25T10:44:57;34.70;19.30
50576;DHT22;76633;45.642;12.198;2024-03-25T10:47:25;35.40;17.70
50576;DHT22;76633;45.642;12.198;2024-03-25T10:50:03;35.10;17.90
50576;DHT22;76633;45.642;12.198;2024-03-25T10:52:32;37.50;16.00
50576;DHT22;76633;45.642;12.198;2024-03-25T10:54:58;38.10;14.90
50576;DHT22;76633;45.642;12.198;2024-03-25T10:57:24;39.40;14.80
50576;DHT22;76633;45.642;12.198;2024-03-25T10:59:51;39.30;15.20
50576;DHT22;76633;45.642;12.198;2024-03-25T11:02:18;38.90;15.20
50576;DHT22;76633;45.642;12.198;2024-03-25T11:04:45;40.40;15.10
50576;DHT22;76633;45.642;12.198;2024-03-25T11:07:12;41.80;15.10
50576;DHT22;76633;45.642;12.198;2024-03-25T11:09:39;41.70;14.90
50576;DHT22;76633;45.642;12.198;2024-03-25T11:12:05;42.10;15.00
50576;DHT22;76633;45.642;12.198;2024-03-25T11:14:31;42.40;14.80
50576;DHT22;76633;45.642;12.198;2024-03-25T11:17:01;40.90;15.30
50576;DHT22;76633;45.642;12.198;2024-03-25T11:19:28;41.60;15.00
50576;DHT22;76633;45.642;12.198;2024-03-25T11:22:07;42.40;15.10
50576;DHT22;76633;45.642;12.198;2024-03-25T11:24:34;43.70;14.30
50576;DHT22;76633;45.642;12.198;2024-03-25T11:27:02;43.10;14.70
50576;DHT22;76633;45.642;12.198;2024-03-25T11:29:28;42.40;15.00
50576;DHT22;76633;45.642;12.198;2024-03-25T11:31:55;40.40;15.70
50576;DHT22;76633;45.642;12.198;2024-03-25T11:34:23;40.60;15.30
50576;DHT22;76633;45.642;12.198;2024-03-25T11:36:49;41.60;15.30
50576;DHT22;76633;45.642;12.198;2024-03-25T11:39:15;42.40;15.30
50576;DHT22;76633;45.642;12.198;2024-03-25T11:41:42;43.20;14.60
50576;DHT22;76633;45.642;12.198;2024-03-25T11:44:08;44.40;14.50
50576;DHT22;76633;45.642;12.198;2024-03-25T11:46:37;45.70;14.30
50576;DHT22;76633;45.642;12.198;2024-03-25T11:49:12;47.00;13.70
50576;DHT22;76633;45.642;12.198;2024-03-25T11:51:38;47.20;13.80
50576;DHT22;76633;45.642;12.198;2024-03-25T11:54:09;41.80;14.40
50576;DHT22;76633;45.642;12.198;2024-03-25T11:56:36;42.90;14.50
50576;DHT22;76633;45.642;12.198;2024-03-25T11:59:03;42.40;14.20
50576;DHT22;76633;45.642;12.198;2024-03-25T12:01:30;41.10;14.90
50576;DHT22;76633;45.642;12.198;2024-03-25T12:03:56;40.50;15.20
50576;DHT22;76633;45.642;12.198;2024-03-25T12:06:22;41.40;15.00
50576;DHT22;76633;45.642;12.198;2024-03-25T12:08:47;43.40;14.40
50576;DHT22;76633;45.642;12.198;2024-03-25T12:11:32;43.10;14.70
50576;DHT22;76633;45.642;12.198;2024-03-25T12:13:59;33.40;19.60
50576;DHT22;76633;45.642;12.198;2024-03-25T12:16:26;34.80;20.00
50576;DHT22;76633;45.642;12.198;2024-03-25T12:18:52;32.90;21.50
50576;DHT22;76633;45.642;12.198;2024-03-25T12:21:20;35.60;19.60
50576;DHT22;76633;45.642;12.198;2024-03-25T12:23:47;39.00;18.00
50576;DHT22;76633;45.642;12.198;2024-03-25T12:26:13;40.00;16.90
50576;DHT22;76633;45.642;12.198;2024-03-25T12:28:42;42.50;15.40
50576;DHT22;76633;45.642;12.198;2024-03-25T12:31:08;43.40;14.70
50576;DHT22;76633;45.642;12.198;2024-03-25T12:33:46;43.50;15.60
50576;DHT22;76633;45.642;12.198;2024-03-25T12:36:12;42.20;16.10
50576;DHT22;76633;45.642;12.198;2024-03-25T12:38:38;41.60;16.30
50576;DHT22;76633;45.642;12.198;2024-03-25T12:43:34;42.30;16.00
50576;DHT22;76633;45.642;12.198;2024-03-25T12:46:00;42.30;15.60
50576;DHT22;76633;45.642;12.198;2024-03-25T12:48:26;42.80;15.30
50576;DHT22;76633;45.642;12.198;2024-03-25T12:50:52;35.70;19.10
50576;DHT22;76633;45.642;12.198;2024-03-25T12:53:21;29.40;23.60
50576;DHT22;76633;45.642;12.198;2024-03-25T12:55:47;26.80;26.60
50576;DHT22;76633;45.642;12.198;2024-03-25T12:58:13;25.00;28.30
50576;DHT22;76633;45.642;12.198;2024-03-25T13:00:39;24.30;29.00
50576;DHT22;76633;45.642;12.198;2024-03-25T13:03:06;24.30;28.60
50576;DHT22;76633;45.642;12.198;2024-03-25T13:05:33;23.80;29.70
50576;DHT22;76633;45.642;12.198;2024-03-25T13:07:59;26.40;27.90
50576;DHT22;76633;45.642;12.198;2024-03-25T13:10:25;29.40;24.90
50576;DHT22;76633;45.642;12.198;2024-03-25T13:12:51;31.30;22.60
50576;DHT22;76633;45.642;12.198;2024-03-25T13:15:16;32.90;21.00
50576;DHT22;76633;45.642;12.198;2024-03-25T13:17:42;34.00;19.90
50576;DHT22;76633;45.642;12.198;2024-03-25T13:20:08;36.90;18.00
50576;DHT22;76633;45.642;12.198;2024-03-25T13:22:35;37.90;18.80
50576;DHT22;76633;45.642;12.198;2024-03-25T13:25:00;38.40;18.60
50576;DHT22;76633;45.642;12.198;2024-03-25T13:27:26;39.40;18.50
50576;DHT22;76633;45.642;12.198;2024-03-25T13:29:52;39.50;18.30
50576;DHT22;76633;45.642;12.198;2024-03-25T13:32:21;39.90;18.40
50576;DHT22;76633;45.642;12.198;2024-03-25T13:34:49;40.60;17.70
50576;DHT22;76633;45.642;12.198;2024-03-25T13:37:15;40.20;18.00
50576;DHT22;76633;45.642;12.198;2024-03-25T13:39:41;39.80;18.70
50576;DHT22;76633;45.642;12.198;2024-03-25T13:42:06;39.30;18.90
50576;DHT22;76633;45.642;12.198;2024-03-25T13:44:32;39.10;18.50
50576;DHT22;76633;45.642;12.198;2024-03-25T13:46:58;38.60;19.00
50576;DHT22;76633;45.642;12.198;2024-03-25T13:49:23;39.40;18.70
50576;DHT22;76633;45.642;12.198;2024-03-25T13:51:59;39.60;18.20
50576;DHT22;76633;45.642;12.198;2024-03-25T13:54:26;39.80;18.10
50576;DHT22;76633;45.642;12.198;2024-03-25T13:56:52;39.00;18.10
50576;DHT22;76633;45.642;12.198;2024-03-25T13:59:18;38.60;18.20
50576;DHT22;76633;45.642;12.198;2024-03-25T14:01:44;40.10;17.40
50576;DHT22;76633;45.642;12.198;2024-03-25T14:04:10;39.00;17.60
50576;DHT22;76633;45.642;12.198;2024-03-25T14:06:36;37.70;18.30
50576;DHT22;76633;45.642;12.198;2024-03-25T14:09:02;36.80;19.40
50576;DHT22;76633;45.642;12.198;2024-03-25T14:11:31;35.70;20.10
50576;DHT22;76633;45.642;12.198;2024-03-25T14:13:57;31.90;22.80
50576;DHT22;76633;45.642;12.198;2024-03-25T14:16:23;29.10;26.00
50576;DHT22;76633;45.642;12.198;2024-03-25T14:18:48;27.80;28.00
50576;DHT22;76633;45.642;12.198;2024-03-25T14:21:14;26.80;28.40
50576;DHT22;76633;45.642;12.198;2024-03-25T14:23:40;26.90;29.00
50576;DHT22;76633;45.642;12.198;2024-03-25T14:26:14;26.70;28.30
50576;DHT22;76633;45.642;12.198;2024-03-25T14:28:41;26.00;28.80
50576;DHT22;76633;45.642;12.198;2024-03-25T14:31:07;24.90;28.80
50576;DHT22;76633;45.642;12.198;2024-03-25T14:33:32;23.60;29.80
50576;DHT22;76633;45.642;12.198;2024-03-25T14:35:58;21.30;33.10
50576;DHT22;76633;45.642;12.198;2024-03-25T14:38:24;21.40;32.60
50576;DHT22;76633;45.642;12.198;2024-03-25T14:40:49;21.70;32.00
50576;DHT22;76633;45.642;12.198;2024-03-25T14:43:15;23.30;30.10
50576;DHT22;76633;45.642;12.198;2024-03-25T14:45:44;23.40;29.40
50576;DHT22;76633;45.642;12.198;2024-03-25T14:48:10;23.60;30.30
50576;DHT22;76633;45.642;12.198;2024-03-25T14:50:36;23.70;29.40
50576;DHT22;76633;45.642;12.198;2024-03-25T14:53:02;23.70;29.40
50576;DHT22;76633;45.642;12.198;2024-03-25T14:55:29;24.30;30.40
50576;DHT22;76633;45.642;12.198;2024-03-25T14:57:55;25.00;28.00
50576;DHT22;76633;45.642;12.198;2024-03-25T15:00:21;24.30;28.50
50576;DHT22;76633;45.642;12.198;2024-03-25T15:02:47;24.30;28.40
50576;DHT22;76633;45.642;12.198;2024-03-25T15:05:13;23.80;29.60
50576;DHT22;76633;45.642;12.198;2024-03-25T15:07:38;23.90;29.20
50576;DHT22;76633;45.642;12.198;2024-03-25T15:10:04;23.40;29.70
50576;DHT22;76633;45.642;12.198;2024-03-25T15:12:30;24.20;30.40
50576;DHT22;76633;45.642;12.198;2024-03-25T15:14:56;24.80;30.60
50576;DHT22;76633;45.642;12.198;2024-03-25T15:17:22;25.10;30.60
50576;DHT22;76633;45.642;12.198;2024-03-25T15:19:47;24.80;31.20
50576;DHT22;76633;45.642;12.198;2024-03-25T15:22:13;25.10;30.10
50576;DHT22;76633;45.642;12.198;2024-03-25T15:24:39;25.20;30.80
50576;DHT22;76633;45.642;12.198;2024-03-25T15:27:04;24.00;32.00